Terminal Aerodrome Forecast
Issued by NWS Pittsburgh, PA

Home | Current Version | Previous Version | Text Only | Print | Product List | Glossary On
Versions: 1 2 3 4 5 6 7 8 9 10 11 12 13 14 15 16 17 18 19 20 21 22 23 24 25 26 27 28 29 30 31
000
FTUS41 KPBZ 271400 AAB
TAFPIT
TAF AMD
KPIT 271457Z 2715/2818 29005KT 3SM -SHSN BR OVC025
      TEMPO 2715/2718 2SM -SHSN BKN015
     FM272100 30008KT P6SM VCSH OVC035=

USA.gov is the U.S. government's official web portal to all federal, state and local government web resources and services.